sensor_id;sensor_type;location;lat;lon;timestamp;pressure;altitude;pressure_sealevel;temperature;humidity
9059;BME280;4564;42.034;25.834;2022-08-19T00:01:31;99660.84;;;24.81;67.86
9059;BME280;4564;42.034;25.834;2022-08-19T00:04:01;99650.84;;;24.80;67.86
9059;BME280;4564;42.034;25.834;2022-08-19T00:06:28;99658.91;;;24.81;66.08
9059;BME280;4564;42.034;25.834;2022-08-19T00:08:56;99655.50;;;24.65;66.33
9059;BME280;4564;42.034;25.834;2022-08-19T00:11:23;99659.31;;;24.70;65.70
9059;BME280;4564;42.034;25.834;2022-08-19T00:13:52;99658.78;;;24.67;65.67
9059;BME280;4564;42.034;25.834;2022-08-19T00:16:19;99662.16;;;24.64;65.87
9059;BME280;4564;42.034;25.834;2022-08-19T00:18:46;99660.50;;;24.63;65.34
9059;BME280;4564;42.034;25.834;2022-08-19T00:21:15;99668.06;;;24.58;65.59
9059;BME280;4564;42.034;25.834;2022-08-19T00:23:42;99650.34;;;24.54;65.87
9059;BME280;4564;42.034;25.834;2022-08-19T00:26:09;99661.22;;;24.50;65.77
9059;BME280;4564;42.034;25.834;2022-08-19T00:28:36;99661.94;;;24.32;66.32
9059;BME280;4564;42.034;25.834;2022-08-19T00:31:03;99655.75;;;24.11;67.28
9059;BME280;4564;42.034;25.834;2022-08-19T00:33:31;99651.72;;;23.99;67.52
9059;BME280;4564;42.034;25.834;2022-08-19T00:35:58;99654.19;;;24.00;67.96
9059;BME280;4564;42.034;25.834;2022-08-19T00:38:26;99655.91;;;23.96;67.95
9059;BME280;4564;42.034;25.834;2022-08-19T00:40:53;99658.34;;;23.98;67.60
9059;BME280;4564;42.034;25.834;2022-08-19T00:43:21;99649.84;;;23.89;68.13
9059;BME280;4564;42.034;25.834;2022-08-19T00:45:48;99654.81;;;23.92;68.07
9059;BME280;4564;42.034;25.834;2022-08-19T00:48:15;99652.59;;;23.94;68.30
9059;BME280;4564;42.034;25.834;2022-08-19T00:50:42;99650.19;;;23.82;68.35
9059;BME280;4564;42.034;25.834;2022-08-19T00:53:10;99652.41;;;23.86;68.20
9059;BME280;4564;42.034;25.834;2022-08-19T00:55:38;99655.69;;;23.88;68.10
9059;BME280;4564;42.034;25.834;2022-08-19T00:58:06;99655.41;;;23.89;67.86
9059;BME280;4564;42.034;25.834;2022-08-19T01:00:33;99655.69;;;23.88;68.17
9059;BME280;4564;42.034;25.834;2022-08-19T01:03:02;99654.03;;;23.87;67.85
9059;BME280;4564;42.034;25.834;2022-08-19T01:05:29;99644.44;;;23.74;68.23
9059;BME280;4564;42.034;25.834;2022-08-19T01:07:56;99646.91;;;23.75;68.62
9059;BME280;4564;42.034;25.834;2022-08-19T01:10:25;99650.91;;;23.64;69.02
9059;BME280;4564;42.034;25.834;2022-08-19T01:12:54;99643.75;;;23.58;68.95
9059;BME280;4564;42.034;25.834;2022-08-19T01:15:21;99645.22;;;23.46;69.61
9059;BME280;4564;42.034;25.834;2022-08-19T01:17:49;99642.16;;;23.47;69.60
9059;BME280;4564;42.034;25.834;2022-08-19T01:20:18;99647.13;;;23.50;69.55
9059;BME280;4564;42.034;25.834;2022-08-19T01:22:48;99644.59;;;23.54;69.72
9059;BME280;4564;42.034;25.834;2022-08-19T01:25:15;99643.78;;;23.53;69.27
9059;BME280;4564;42.034;25.834;2022-08-19T01:27:44;99647.41;;;23.43;69.52
9059;BME280;4564;42.034;25.834;2022-08-19T01:30:13;99644.38;;;23.40;69.75
9059;BME280;4564;42.034;25.834;2022-08-19T01:32:40;99645.53;;;23.34;69.96
9059;BME280;4564;42.034;25.834;2022-08-19T01:35:08;99648.38;;;23.24;69.90
9059;BME280;4564;42.034;25.834;2022-08-19T01:37:43;99658.13;;;23.11;70.71
9059;BME280;4564;42.034;25.834;2022-08-19T01:40:11;99655.09;;;23.08;70.93
9059;BME280;4564;42.034;25.834;2022-08-19T01:42:38;99659.84;;;23.02;71.51
9059;BME280;4564;42.034;25.834;2022-08-19T01:45:06;99664.03;;;22.89;71.54
9059;BME280;4564;42.034;25.834;2022-08-19T01:47:33;99664.41;;;22.78;72.48
9059;BME280;4564;42.034;25.834;2022-08-19T01:50:00;99655.81;;;22.74;72.65
9059;BME280;4564;42.034;25.834;2022-08-19T01:52:27;99658.56;;;22.74;72.37
9059;BME280;4564;42.034;25.834;2022-08-19T01:54:53;99658.06;;;22.72;72.66
9059;BME280;4564;42.034;25.834;2022-08-19T01:57:22;99661.34;;;22.69;72.50
9059;BME280;4564;42.034;25.834;2022-08-19T01:59:48;99665.22;;;22.73;72.66
9059;BME280;4564;42.034;25.834;2022-08-19T02:02:16;99662.44;;;22.78;71.96
9059;BME280;4564;42.034;25.834;2022-08-19T02:04:43;99665.22;;;22.73;72.35
9059;BME280;4564;42.034;25.834;2022-08-19T02:07:11;99664.09;;;22.69;72.63
9059;BME280;4564;42.034;25.834;2022-08-19T02:09:38;99661.63;;;22.63;72.84
9059;BME280;4564;42.034;25.834;2022-08-19T02:12:05;99667.47;;;22.56;72.63
9059;BME280;4564;42.034;25.834;2022-08-19T02:14:34;99665.25;;;22.53;73.32
9059;BME280;4564;42.034;25.834;2022-08-19T02:17:01;99658.06;;;22.52;73.27
9059;BME280;4564;42.034;25.834;2022-08-19T02:19:28;99667.47;;;22.61;72.81
9059;BME280;4564;42.034;25.834;2022-08-19T02:21:57;99661.09;;;22.60;72.83
9059;BME280;4564;42.034;25.834;2022-08-19T02:24:24;99660.28;;;22.60;72.40
9059;BME280;4564;42.034;25.834;2022-08-19T02:26:51;99666.38;;;22.52;72.51
9059;BME280;4564;42.034;25.834;2022-08-19T02:29:18;99666.38;;;22.47;73.38
9059;BME280;4564;42.034;25.834;2022-08-19T02:31:46;99675.25;;;22.44;73.33
9059;BME280;4564;42.034;25.834;2022-08-19T02:34:13;99670.56;;;22.44;73.52
9059;BME280;4564;42.034;25.834;2022-08-19T02:36:39;99686.03;;;22.45;73.09
9059;BME280;4564;42.034;25.834;2022-08-19T02:39:06;99684.06;;;22.46;73.38
9059;BME280;4564;42.034;25.834;2022-08-19T02:41:32;99685.75;;;22.42;73.28
9059;BME280;4564;42.034;25.834;2022-08-19T02:44:00;99692.94;;;22.43;73.66
9059;BME280;4564;42.034;25.834;2022-08-19T02:46:27;99685.50;;;22.38;73.91
9059;BME280;4564;42.034;25.834;2022-08-19T02:48:56;99692.72;;;22.29;74.22
9059;BME280;4564;42.034;25.834;2022-08-19T02:51:24;99695.75;;;22.17;74.76
9059;BME280;4564;42.034;25.834;2022-08-19T02:53:51;99702.13;;;22.23;74.67
9059;BME280;4564;42.034;25.834;2022-08-19T02:56:18;99705.97;;;22.17;74.69
9059;BME280;4564;42.034;25.834;2022-08-19T02:58:45;99712.34;;;22.17;74.77
9059;BME280;4564;42.034;25.834;2022-08-19T03:01:18;99711.50;;;22.17;74.53
9059;BME280;4564;42.034;25.834;2022-08-19T03:03:45;99713.16;;;22.08;74.80
9059;BME280;4564;42.034;25.834;2022-08-19T03:06:14;99715.66;;;21.94;75.60
9059;BME280;4564;42.034;25.834;2022-08-19T03:08:42;99722.81;;;21.90;75.63
9059;BME280;4564;42.034;25.834;2022-08-19T03:11:12;99721.16;;;21.84;76.19
9059;BME280;4564;42.034;25.834;2022-08-19T03:13:39;99721.16;;;21.79;76.36
9059;BME280;4564;42.034;25.834;2022-08-19T03:16:05;99720.00;;;21.65;76.83
9059;BME280;4564;42.034;25.834;2022-08-19T03:18:32;99718.38;;;21.59;77.19
9059;BME280;4564;42.034;25.834;2022-08-19T03:20:58;99724.72;;;21.64;76.89
9059;BME280;4564;42.034;25.834;2022-08-19T03:23:27;99723.91;;;21.74;76.60
9059;BME280;4564;42.034;25.834;2022-08-19T03:25:53;99729.44;;;21.84;76.40
9059;BME280;4564;42.034;25.834;2022-08-19T03:28:20;99726.94;;;21.88;76.12
9059;BME280;4564;42.034;25.834;2022-08-19T03:30:56;99726.66;;;21.69;76.56
9059;BME280;4564;42.034;25.834;2022-08-19T03:33:23;99720.84;;;21.65;76.98
9059;BME280;4564;42.034;25.834;2022-08-19T03:36:04;99733.28;;;21.63;77.15
9059;BME280;4564;42.034;25.834;2022-08-19T03:38:33;99731.63;;;21.77;76.59
9059;BME280;4564;42.034;25.834;2022-08-19T03:41:03;99740.75;;;21.88;76.40
9059;BME280;4564;42.034;25.834;2022-08-19T03:43:32;99736.66;;;21.95;75.53
9059;BME280;4564;42.034;25.834;2022-08-19T03:46:02;99737.22;;;22.07;74.73
9059;BME280;4564;42.034;25.834;2022-08-19T03:48:30;99742.47;;;22.19;74.42
9059;BME280;4564;42.034;25.834;2022-08-19T03:50:56;99746.63;;;22.01;75.12
9059;BME280;4564;42.034;25.834;2022-08-19T03:53:24;99741.63;;;21.98;75.08
9059;BME280;4564;42.034;25.834;2022-08-19T03:55:53;99747.72;;;22.10;74.51
9059;BME280;4564;42.034;25.834;2022-08-19T03:58:20;99757.69;;;22.22;74.34
9059;BME280;4564;42.034;25.834;2022-08-19T04:10:15;99759.59;;;22.11;74.72
9059;BME280;4564;42.034;25.834;2022-08-19T04:12:42;99753.50;;;22.19;74.54
9059;BME280;4564;42.034;25.834;2022-08-19T04:15:09;99772.06;;;22.34;73.93
9059;BME280;4564;42.034;25.834;2022-08-19T04:17:35;99775.91;;;22.53;73.37
9059;BME280;4564;42.034;25.834;2022-08-19T04:20:02;99777.81;;;22.68;72.54
9059;BME280;4564;42.034;25.834;2022-08-19T04:22:29;99772.31;;;22.78;71.75
9059;BME280;4564;42.034;25.834;2022-08-19T04:24:56;99773.38;;;22.92;71.02
9059;BME280;4564;42.034;25.834;2022-08-19T04:27:24;99779.13;;;23.06;70.75
9059;BME280;4564;42.034;25.834;2022-08-19T04:29:51;99776.59;;;23.19;69.56
9059;BME280;4564;42.034;25.834;2022-08-19T04:32:19;99769.38;;;23.23;69.71
9059;BME280;4564;42.034;25.834;2022-08-19T04:34:46;99773.50;;;23.36;69.33
9059;BME280;4564;42.034;25.834;2022-08-19T04:37:13;99771.25;;;23.48;69.22
9059;BME280;4564;42.034;25.834;2022-08-19T04:39:39;99776.19;;;23.56;68.80
9059;BME280;4564;42.034;25.834;2022-08-19T04:42:25;99778.94;;;23.56;68.81
9059;BME280;4564;42.034;25.834;2022-08-19T04:45:07;99776.75;;;23.53;68.31
9059;BME280;4564;42.034;25.834;2022-08-19T04:47:35;99774.75;;;23.64;67.91
9059;BME280;4564;42.034;25.834;2022-08-19T04:50:01;99783.22;;;23.82;67.73
9059;BME280;4564;42.034;25.834;2022-08-19T04:52:28;99779.56;;;23.92;67.01
9059;BME280;4564;42.034;25.834;2022-08-19T04:54:57;99787.63;;;23.89;67.66
9059;BME280;4564;42.034;25.834;2022-08-19T04:57:25;99781.44;;;24.02;67.17
9059;BME280;4564;42.034;25.834;2022-08-19T04:59:53;99790.44;;;24.28;66.69
9059;BME280;4564;42.034;25.834;2022-08-19T05:02:20;99785.25;;;24.50;66.06
9059;BME280;4564;42.034;25.834;2022-08-19T05:04:48;99787.66;;;24.56;66.05
9059;BME280;4564;42.034;25.834;2022-08-19T05:07:14;99794.19;;;24.71;65.54
9059;BME280;4564;42.034;25.834;2022-08-19T05:09:41;99800.72;;;24.85;65.05
9059;BME280;4564;42.034;25.834;2022-08-19T05:12:08;99796.75;;;24.96;65.07
9059;BME280;4564;42.034;25.834;2022-08-19T05:14:36;99802.06;;;25.16;64.21
9059;BME280;4564;42.034;25.834;2022-08-19T05:17:02;99792.66;;;25.36;63.72
9059;BME280;4564;42.034;25.834;2022-08-19T05:19:29;99793.19;;;25.38;63.76
9059;BME280;4564;42.034;25.834;2022-08-19T05:22:13;99793.81;;;25.59;62.86
9059;BME280;4564;42.034;25.834;2022-08-19T05:25:01;99792.31;;;25.85;62.28
9059;BME280;4564;42.034;25.834;2022-08-19T05:27:27;99794.66;;;26.48;60.81
9059;BME280;4564;42.034;25.834;2022-08-19T05:29:55;99801.22;;;28.07;56.29
9059;BME280;4564;42.034;25.834;2022-08-19T05:32:22;99794.03;;;30.26;50.24
9059;BME280;4564;42.034;25.834;2022-08-19T05:34:49;99797.75;;;32.37;43.39
9059;BME280;4564;42.034;25.834;2022-08-19T05:37:16;99796.31;;;33.78;39.51
9059;BME280;4564;42.034;25.834;2022-08-19T05:39:43;99800.03;;;34.90;37.89
9059;BME280;4564;42.034;25.834;2022-08-19T05:42:10;99805.56;;;35.96;35.58
9059;BME280;4564;42.034;25.834;2022-08-19T05:44:38;99794.47;;;36.80;33.97
9059;BME280;4564;42.034;25.834;2022-08-19T05:47:06;99796.00;;;37.65;31.65
9059;BME280;4564;42.034;25.834;2022-08-19T05:49:33;99800.75;;;38.10;30.69
9059;BME280;4564;42.034;25.834;2022-08-19T05:52:01;99787.06;;;38.49;30.30
9059;BME280;4564;42.034;25.834;2022-08-19T05:54:28;99788.63;;;39.14;28.85
9059;BME280;4564;42.034;25.834;2022-08-19T05:56:56;99793.66;;;39.78;28.05
9059;BME280;4564;42.034;25.834;2022-08-19T05:59:23;99788.53;;;40.09;27.68
9059;BME280;4564;42.034;25.834;2022-08-19T06:01:50;99791.78;;;39.53;27.72
9059;BME280;4564;42.034;25.834;2022-08-19T06:04:18;99794.97;;;39.44;28.58
9059;BME280;4564;42.034;25.834;2022-08-19T06:06:45;99785.38;;;40.21;27.96
9059;BME280;4564;42.034;25.834;2022-08-19T06:09:12;99799.66;;;40.32;26.91
9059;BME280;4564;42.034;25.834;2022-08-19T06:11:40;99793.09;;;40.24;27.04
9059;BME280;4564;42.034;25.834;2022-08-19T06:14:09;99803.84;;;40.66;26.31
9059;BME280;4564;42.034;25.834;2022-08-19T06:16:37;99799.78;;;40.63;26.80
9059;BME280;4564;42.034;25.834;2022-08-19T06:19:05;99810.53;;;41.55;25.77
9059;BME280;4564;42.034;25.834;2022-08-19T06:21:35;99818.59;;;42.20;24.93
9059;BME280;4564;42.034;25.834;2022-08-19T06:24:03;99810.22;;;42.79;24.21
9059;BME280;4564;42.034;25.834;2022-08-19T06:26:30;99816.81;;;42.62;24.18
9059;BME280;4564;42.034;25.834;2022-08-19T06:28:57;99813.69;;;43.15;24.04
9059;BME280;4564;42.034;25.834;2022-08-19T06:31:24;99808.94;;;43.46;23.51
9059;BME280;4564;42.034;25.834;2022-08-19T06:33:51;99814.47;;;43.19;23.72
9059;BME280;4564;42.034;25.834;2022-08-19T06:36:19;99820.38;;;42.91;23.44
9059;BME280;4564;42.034;25.834;2022-08-19T06:38:47;99808.41;;;42.12;24.83
9059;BME280;4564;42.034;25.834;2022-08-19T06:41:14;99807.06;;;42.59;24.35
9059;BME280;4564;42.034;25.834;2022-08-19T06:43:41;99808.22;;;42.73;23.92
9059;BME280;4564;42.034;25.834;2022-08-19T06:46:11;99809.28;;;42.02;24.71
9059;BME280;4564;42.034;25.834;2022-08-19T06:48:38;99805.00;;;42.56;24.13
9059;BME280;4564;42.034;25.834;2022-08-19T06:51:05;99814.03;;;43.24;23.65
9059;BME280;4564;42.034;25.834;2022-08-19T06:53:32;99807.59;;;43.65;23.37
9059;BME280;4564;42.034;25.834;2022-08-19T06:56:00;99810.28;;;43.79;22.62
9059;BME280;4564;42.034;25.834;2022-08-19T07:01:50;99808.56;;;44.60;21.99
9059;BME280;4564;42.034;25.834;2022-08-19T07:07:39;99804.44;;;45.22;20.89
9059;BME280;4564;42.034;25.834;2022-08-19T07:10:09;99811.91;;;45.42;20.52
9059;BME280;4564;42.034;25.834;2022-08-19T07:12:38;99811.94;;;44.85;20.51
9059;BME280;4564;42.034;25.834;2022-08-19T07:15:06;99804.19;;;44.82;20.35
9059;BME280;4564;42.034;25.834;2022-08-19T07:17:35;99810.16;;;44.95;21.33
9059;BME280;4564;42.034;25.834;2022-08-19T07:20:04;99805.66;;;44.94;20.95
9059;BME280;4564;42.034;25.834;2022-08-19T07:22:32;99807.94;;;45.33;21.05
9059;BME280;4564;42.034;25.834;2022-08-19T07:24:59;99800.69;;;44.71;20.47
9059;BME280;4564;42.034;25.834;2022-08-19T07:27:28;99806.25;;;45.12;20.67
9059;BME280;4564;42.034;25.834;2022-08-19T07:29:56;99798.44;;;44.21;21.56
9059;BME280;4564;42.034;25.834;2022-08-19T07:32:23;99800.66;;;44.41;21.54
9059;BME280;4564;42.034;25.834;2022-08-19T07:34:51;99800.34;;;44.92;20.54
9059;BME280;4564;42.034;25.834;2022-08-19T07:37:18;99797.19;;;45.13;21.01
9059;BME280;4564;42.034;25.834;2022-08-19T07:39:45;99801.00;;;45.80;20.33
9059;BME280;4564;42.034;25.834;2022-08-19T07:42:12;99802.72;;;45.98;19.83
9059;BME280;4564;42.034;25.834;2022-08-19T07:44:41;99741.13;;;45.36;19.55
9059;BME280;4564;42.034;25.834;2022-08-19T07:47:09;99794.47;;;45.30;19.85
9059;BME280;4564;42.034;25.834;2022-08-19T07:49:36;99799.06;;;45.50;19.81
9059;BME280;4564;42.034;25.834;2022-08-19T07:52:04;99794.34;;;45.37;19.80
9059;BME280;4564;42.034;25.834;2022-08-19T07:57:53;99788.25;;;46.05;19.34
9059;BME280;4564;42.034;25.834;2022-08-19T08:03:43;99788.28;;;42.58;22.88
9059;BME280;4564;42.034;25.834;2022-08-19T08:06:28;99779.97;;;41.20;24.23
9059;BME280;4564;42.034;25.834;2022-08-19T08:09:12;99776.59;;;39.78;25.47
9059;BME280;4564;42.034;25.834;2022-08-19T08:11:47;99774.53;;;39.31;26.03
9059;BME280;4564;42.034;25.834;2022-08-19T08:14:15;99773.28;;;38.85;27.13
9059;BME280;4564;42.034;25.834;2022-08-19T08:16:42;99773.16;;;38.71;27.12
9059;BME280;4564;42.034;25.834;2022-08-19T08:19:10;99770.94;;;38.53;27.55
9059;BME280;4564;42.034;25.834;2022-08-19T08:21:37;99767.59;;;38.18;27.64
9059;BME280;4564;42.034;25.834;2022-08-19T08:24:04;99775.16;;;37.80;27.79
9059;BME280;4564;42.034;25.834;2022-08-19T08:26:31;99769.69;;;37.42;28.63
9059;BME280;4564;42.034;25.834;2022-08-19T08:28:58;99760.44;;;36.77;29.84
9059;BME280;4564;42.034;25.834;2022-08-19T08:31:24;99760.09;;;36.40;30.10
9059;BME280;4564;42.034;25.834;2022-08-19T08:33:51;99756.97;;;36.64;30.54
9059;BME280;4564;42.034;25.834;2022-08-19T08:36:19;99763.41;;;37.07;28.66
9059;BME280;4564;42.034;25.834;2022-08-19T08:38:46;99755.53;;;36.74;28.97
9059;BME280;4564;42.034;25.834;2022-08-19T08:41:16;99757.41;;;36.47;30.11
9059;BME280;4564;42.034;25.834;2022-08-19T08:43:46;99747.59;;;36.60;28.88
9059;BME280;4564;42.034;25.834;2022-08-19T08:46:15;99749.50;;;36.56;29.53
9059;BME280;4564;42.034;25.834;2022-08-19T08:48:45;99747.59;;;36.41;29.56
9059;BME280;4564;42.034;25.834;2022-08-19T08:51:16;99741.22;;;36.44;29.87
9059;BME280;4564;42.034;25.834;2022-08-19T08:53:48;99752.75;;;36.77;28.52
9059;BME280;4564;42.034;25.834;2022-08-19T08:56:16;99741.09;;;37.02;28.36
9059;BME280;4564;42.034;25.834;2022-08-19T08:58:47;99741.03;;;37.21;28.18
9059;BME280;4564;42.034;25.834;2022-08-19T09:01:17;99743.53;;;37.26;28.26
9059;BME280;4564;42.034;25.834;2022-08-19T09:03:44;99745.44;;;36.95;28.53
9059;BME280;4564;42.034;25.834;2022-08-19T09:06:12;99738.94;;;36.95;28.37
9059;BME280;4564;42.034;25.834;2022-08-19T09:08:45;99738.75;;;36.42;28.79
9059;BME280;4564;42.034;25.834;2022-08-19T09:11:16;99737.56;;;36.43;28.74
9059;BME280;4564;42.034;25.834;2022-08-19T09:13:49;99732.06;;;36.31;28.93
9059;BME280;4564;42.034;25.834;2022-08-19T09:16:20;99728.38;;;36.50;29.34
9059;BME280;4564;42.034;25.834;2022-08-19T09:18:54;99734.44;;;36.48;29.30
9059;BME280;4564;42.034;25.834;2022-08-19T09:21:23;99733.34;;;36.14;29.59
9059;BME280;4564;42.034;25.834;2022-08-19T09:23:50;99729.72;;;35.79;29.78
9059;BME280;4564;42.034;25.834;2022-08-19T09:26:19;99729.56;;;35.91;30.44
9059;BME280;4564;42.034;25.834;2022-08-19T09:28:46;99725.09;;;35.90;29.15
9059;BME280;4564;42.034;25.834;2022-08-19T09:31:15;99718.69;;;35.74;30.20
9059;BME280;4564;42.034;25.834;2022-08-19T09:33:42;99711.56;;;35.80;29.42
9059;BME280;4564;42.034;25.834;2022-08-19T09:36:09;99718.66;;;35.90;29.92
9059;BME280;4564;42.034;25.834;2022-08-19T09:38:37;99716.06;;;36.20;30.17
9059;BME280;4564;42.034;25.834;2022-08-19T09:41:06;99719.34;;;36.22;29.49
9059;BME280;4564;42.034;25.834;2022-08-19T09:43:34;99722.59;;;36.04;29.59
9059;BME280;4564;42.034;25.834;2022-08-19T09:46:02;99714.09;;;35.85;30.17
9059;BME280;4564;42.034;25.834;2022-08-19T09:48:30;99714.25;;;35.73;29.93
9059;BME280;4564;42.034;25.834;2022-08-19T09:51:01;99720.13;;;35.84;30.06
9059;BME280;4564;42.034;25.834;2022-08-19T09:53:29;99702.06;;;35.88;29.54
9059;BME280;4564;42.034;25.834;2022-08-19T09:55:55;99700.59;;;35.94;29.58
9059;BME280;4564;42.034;25.834;2022-08-19T09:58:22;99706.06;;;35.87;29.54
9059;BME280;4564;42.034;25.834;2022-08-19T10:00:54;99698.94;;;35.93;29.08
9059;BME280;4564;42.034;25.834;2022-08-19T10:03:21;99708.34;;;36.16;29.01
9059;BME280;4564;42.034;25.834;2022-08-19T10:05:47;99691.81;;;36.38;29.17
9059;BME280;4564;42.034;25.834;2022-08-19T10:08:14;99701.69;;;36.47;28.56
9059;BME280;4564;42.034;25.834;2022-08-19T10:10:40;99699.88;;;36.16;28.83
9059;BME280;4564;42.034;25.834;2022-08-19T10:13:09;99698.13;;;36.31;28.62
9059;BME280;4564;42.034;25.834;2022-08-19T10:15:35;99698.19;;;36.54;28.48
9059;BME280;4564;42.034;25.834;2022-08-19T10:18:06;99697.59;;;36.64;28.59
9059;BME280;4564;42.034;25.834;2022-08-19T10:20:33;99698.13;;;36.73;28.12
9059;BME280;4564;42.034;25.834;2022-08-19T10:23:00;99699.00;;;36.77;27.91
9059;BME280;4564;42.034;25.834;2022-08-19T10:25:27;99696.50;;;36.72;28.22
9059;BME280;4564;42.034;25.834;2022-08-19T10:27:54;99686.88;;;36.54;27.70
9059;BME280;4564;42.034;25.834;2022-08-19T10:30:20;99682.63;;;36.44;28.54
9059;BME280;4564;42.034;25.834;2022-08-19T10:32:47;99687.47;;;36.63;28.00
9059;BME280;4564;42.034;25.834;2022-08-19T10:35:15;99683.91;;;36.47;27.17
9059;BME280;4564;42.034;25.834;2022-08-19T10:37:42;99680.00;;;36.55;28.22
9059;BME280;4564;42.034;25.834;2022-08-19T10:40:09;99688.19;;;37.06;26.61
9059;BME280;4564;42.034;25.834;2022-08-19T10:42:37;99684.72;;;36.93;27.13
9059;BME280;4564;42.034;25.834;2022-08-19T10:45:04;99679.28;;;36.81;27.41
9059;BME280;4564;42.034;25.834;2022-08-19T10:47:32;99672.84;;;36.61;27.18
9059;BME280;4564;42.034;25.834;2022-08-19T10:49:59;99672.94;;;36.65;27.21
9059;BME280;4564;42.034;25.834;2022-08-19T10:52:45;99668.75;;;36.36;27.57
9059;BME280;4564;42.034;25.834;2022-08-19T10:55:12;99659.28;;;36.28;27.38
9059;BME280;4564;42.034;25.834;2022-08-19T10:57:56;99667.81;;;36.51;27.14
9059;BME280;4564;42.034;25.834;2022-08-19T11:00:23;99653.59;;;36.47;26.75
9059;BME280;4564;42.034;25.834;2022-08-19T11:02:50;99651.31;;;36.34;26.76
9059;BME280;4564;42.034;25.834;2022-08-19T11:05:17;99650.19;;;36.15;27.03
9059;BME280;4564;42.034;25.834;2022-08-19T11:07:45;99645.56;;;35.88;27.67
9059;BME280;4564;42.034;25.834;2022-08-19T11:13:09;99646.28;;;35.85;27.93
9059;BME280;4564;42.034;25.834;2022-08-19T11:15:36;99640.84;;;35.96;26.89
9059;BME280;4564;42.034;25.834;2022-08-19T11:18:03;99635.16;;;35.92;26.66
9059;BME280;4564;42.034;25.834;2022-08-19T11:20:30;99638.44;;;35.94;26.85
9059;BME280;4564;42.034;25.834;2022-08-19T11:22:58;99633.03;;;36.08;27.18
9059;BME280;4564;42.034;25.834;2022-08-19T11:25:25;99634.41;;;36.14;26.94
9059;BME280;4564;42.034;25.834;2022-08-19T11:27:52;99629.63;;;36.18;26.82
9059;BME280;4564;42.034;25.834;2022-08-19T11:30:19;99628.97;;;36.25;26.73
9059;BME280;4564;42.034;25.834;2022-08-19T11:32:46;99623.25;;;36.44;26.78
9059;BME280;4564;42.034;25.834;2022-08-19T11:35:12;99612.13;;;36.55;26.76
9059;BME280;4564;42.034;25.834;2022-08-19T11:37:39;99621.91;;;36.61;26.61
9059;BME280;4564;42.034;25.834;2022-08-19T11:40:08;99615.06;;;36.39;26.71
9059;BME280;4564;42.034;25.834;2022-08-19T11:42:35;99610.75;;;36.45;26.07
9059;BME280;4564;42.034;25.834;2022-08-19T11:45:20;99609.00;;;36.60;26.06
9059;BME280;4564;42.034;25.834;2022-08-19T11:47:46;99607.19;;;36.48;26.37
9059;BME280;4564;42.034;25.834;2022-08-19T11:50:13;99603.88;;;36.24;26.95
9059;BME280;4564;42.034;25.834;2022-08-19T11:59:18;99593.66;;;36.15;27.13
9059;BME280;4564;42.034;25.834;2022-08-19T12:01:44;99597.41;;;36.23;26.86
9059;BME280;4564;42.034;25.834;2022-08-19T12:04:11;99595.72;;;36.18;26.55
9059;BME280;4564;42.034;25.834;2022-08-19T12:06:39;99600.38;;;36.30;26.85
9059;BME280;4564;42.034;25.834;2022-08-19T12:09:07;99595.38;;;36.43;26.80
9059;BME280;4564;42.034;25.834;2022-08-19T12:11:34;99596.88;;;36.59;26.67
9059;BME280;4564;42.034;25.834;2022-08-19T12:14:02;99594.19;;;36.44;26.75
9059;BME280;4564;42.034;25.834;2022-08-19T12:16:30;99582.28;;;36.57;26.34
9059;BME280;4564;42.034;25.834;2022-08-19T12:18:57;99589.19;;;36.60;26.16
9059;BME280;4564;42.034;25.834;2022-08-19T12:21:28;99591.41;;;36.70;26.15
9059;BME280;4564;42.034;25.834;2022-08-19T12:23:56;99577.88;;;36.60;26.47
9059;BME280;4564;42.034;25.834;2022-08-19T12:26:24;99580.84;;;36.67;25.95
9059;BME280;4564;42.034;25.834;2022-08-19T12:32:20;99579.81;;;36.56;25.48
9059;BME280;4564;42.034;25.834;2022-08-19T12:34:46;99579.28;;;36.47;25.99
9059;BME280;4564;42.034;25.834;2022-08-19T12:37:13;99574.16;;;36.56;25.62
9059;BME280;4564;42.034;25.834;2022-08-19T12:43:02;99575.91;;;37.43;24.56
9059;BME280;4564;42.034;25.834;2022-08-19T12:45:29;99566.88;;;37.60;24.36
9059;BME280;4564;42.034;25.834;2022-08-19T12:47:57;99571.31;;;37.95;23.48
9059;BME280;4564;42.034;25.834;2022-08-19T12:53:46;99567.69;;;37.98;23.83
9059;BME280;4564;42.034;25.834;2022-08-19T12:59:36;99574.25;;;37.09;24.96
9059;BME280;4564;42.034;25.834;2022-08-19T13:02:03;99565.94;;;36.70;25.46
9059;BME280;4564;42.034;25.834;2022-08-19T13:04:32;99565.00;;;36.40;25.73
9059;BME280;4564;42.034;25.834;2022-08-19T13:07:01;99563.25;;;36.32;26.32
9059;BME280;4564;42.034;25.834;2022-08-19T13:09:27;99565.78;;;36.37;26.19
9059;BME280;4564;42.034;25.834;2022-08-19T13:22:07;99544.88;;;36.45;25.22
9059;BME280;4564;42.034;25.834;2022-08-19T13:31:17;99548.09;;;37.19;23.46
9059;BME280;4564;42.034;25.834;2022-08-19T13:37:24;99537.41;;;37.35;23.58
9059;BME280;4564;42.034;25.834;2022-08-19T13:43:26;99521.81;;;37.18;23.94
9059;BME280;4564;42.034;25.834;2022-08-19T13:49:16;99525.47;;;37.19;23.88
9059;BME280;4564;42.034;25.834;2022-08-19T13:51:43;99532.44;;;37.28;24.27
9059;BME280;4564;42.034;25.834;2022-08-19T13:54:11;99526.91;;;37.39;23.95
9059;BME280;4564;42.034;25.834;2022-08-19T13:56:39;99525.19;;;37.31;23.58
9059;BME280;4564;42.034;25.834;2022-08-19T13:59:06;99522.91;;;37.40;23.92
9059;BME280;4564;42.034;25.834;2022-08-19T14:01:33;99528.44;;;37.29;23.97
9059;BME280;4564;42.034;25.834;2022-08-19T14:04:00;99528.97;;;37.09;24.59
9059;BME280;4564;42.034;25.834;2022-08-19T14:06:26;99528.94;;;36.82;24.85
9059;BME280;4564;42.034;25.834;2022-08-19T14:08:53;99526.56;;;36.84;24.84
9059;BME280;4564;42.034;25.834;2022-08-19T14:11:21;99534.88;;;36.74;24.43
9059;BME280;4564;42.034;25.834;2022-08-19T14:17:10;99526.56;;;36.62;24.45
9059;BME280;4564;42.034;25.834;2022-08-19T14:19:36;99525.03;;;36.64;24.20
9059;BME280;4564;42.034;25.834;2022-08-19T14:22:03;99518.88;;;36.58;24.86
9059;BME280;4564;42.034;25.834;2022-08-19T14:24:30;99523.31;;;36.59;24.32
9059;BME280;4564;42.034;25.834;2022-08-19T14:30:21;99519.13;;;36.50;24.96
9059;BME280;4564;42.034;25.834;2022-08-19T14:36:10;99519.34;;;36.15;26.24
9059;BME280;4564;42.034;25.834;2022-08-19T14:38:36;99522.53;;;36.13;26.14